sensor_id;sensor_type;location;lat;lon;timestamp;P1;durP1;ratioP1;P2;durP2;ratioP2
53503;SDS011;39387;50.998;22.340;2023-02-18T00:00:04;15.77;;;9.80;;
53503;SDS011;39387;50.998;22.340;2023-02-18T00:02:53;14.88;;;8.85;;
53503;SDS011;39387;50.998;22.340;2023-02-18T00:05:22;16.58;;;10.00;;
53503;SDS011;39387;50.998;22.340;2023-02-18T00:07:50;14.23;;;8.88;;
53503;SDS011;39387;50.998;22.340;2023-02-18T00:10:17;13.80;;;8.27;;
53503;SDS011;39387;50.998;22.340;2023-02-18T00:12:45;14.32;;;7.90;;
53503;SDS011;39387;50.998;22.340;2023-02-18T00:15:12;14.30;;;8.32;;
53503;SDS011;39387;50.998;22.340;2023-02-18T00:17:40;14.13;;;8.82;;
53503;SDS011;39387;50.998;22.340;2023-02-18T00:20:07;12.95;;;7.70;;
53503;SDS011;39387;50.998;22.340;2023-02-18T00:22:36;14.15;;;7.80;;
53503;SDS011;39387;50.998;22.340;2023-02-18T00:25:04;13.45;;;7.82;;
53503;SDS011;39387;50.998;22.340;2023-02-18T00:27:31;11.82;;;7.43;;
53503;SDS011;39387;50.998;22.340;2023-02-18T00:29:59;10.73;;;6.97;;
53503;SDS011;39387;50.998;22.340;2023-02-18T00:32:26;10.82;;;6.38;;
53503;SDS011;39387;50.998;22.340;2023-02-18T00:34:53;11.90;;;7.18;;
53503;SDS011;39387;50.998;22.340;2023-02-18T00:37:21;10.57;;;6.35;;
53503;SDS011;39387;50.998;22.340;2023-02-18T00:39:49;11.98;;;6.72;;
53503;SDS011;39387;50.998;22.340;2023-02-18T00:42:17;10.30;;;6.63;;
53503;SDS011;39387;50.998;22.340;2023-02-18T00:44:44;9.82;;;5.88;;
53503;SDS011;39387;50.998;22.340;2023-02-18T00:47:11;8.73;;;5.88;;
53503;SDS011;39387;50.998;22.340;2023-02-18T00:49:38;8.43;;;5.97;;
53503;SDS011;39387;50.998;22.340;2023-02-18T00:52:06;6.65;;;5.07;;
53503;SDS011;39387;50.998;22.340;2023-02-18T00:54:33;7.68;;;4.70;;
53503;SDS011;39387;50.998;22.340;2023-02-18T00:57:02;7.13;;;4.95;;
53503;SDS011;39387;50.998;22.340;2023-02-18T00:59:29;6.10;;;4.60;;
53503;SDS011;39387;50.998;22.340;2023-02-18T01:01:57;5.97;;;3.97;;
53503;SDS011;39387;50.998;22.340;2023-02-18T01:04:24;5.90;;;4.45;;
53503;SDS011;39387;50.998;22.340;2023-02-18T01:06:51;5.18;;;3.70;;
53503;SDS011;39387;50.998;22.340;2023-02-18T01:09:18;5.35;;;3.20;;
53503;SDS011;39387;50.998;22.340;2023-02-18T01:11:46;2.70;;;2.50;;
53503;SDS011;39387;50.998;22.340;2023-02-18T01:14:14;4.95;;;2.58;;
53503;SDS011;39387;50.998;22.340;2023-02-18T01:16:42;3.97;;;2.60;;
53503;SDS011;39387;50.998;22.340;2023-02-18T01:19:09;2.70;;;1.77;;
53503;SDS011;39387;50.998;22.340;2023-02-18T01:21:37;2.95;;;1.40;;
53503;SDS011;39387;50.998;22.340;2023-02-18T01:24:04;2.63;;;1.70;;
53503;SDS011;39387;50.998;22.340;2023-02-18T01:26:32;1.70;;;1.00;;
53503;SDS011;39387;50.998;22.340;2023-02-18T01:28:59;1.65;;;1.00;;
53503;SDS011;39387;50.998;22.340;2023-02-18T01:31:28;1.98;;;0.90;;
53503;SDS011;39387;50.998;22.340;2023-02-18T01:33:55;0.60;;;0.60;;
53503;SDS011;39387;50.998;22.340;2023-02-18T01:36:23;2.40;;;0.68;;
53503;SDS011;39387;50.998;22.340;2023-02-18T01:38:50;0.75;;;0.60;;
53503;SDS011;39387;50.998;22.340;2023-02-18T01:41:18;1.10;;;0.50;;
53503;SDS011;39387;50.998;22.340;2023-02-18T01:43:46;1.30;;;0.50;;
53503;SDS011;39387;50.998;22.340;2023-02-18T01:46:15;0.35;;;0.35;;
53503;SDS011;39387;50.998;22.340;2023-02-18T01:48:46;1.70;;;0.73;;
53503;SDS011;39387;50.998;22.340;2023-02-18T01:51:18;2.13;;;0.60;;
53503;SDS011;39387;50.998;22.340;2023-02-18T01:53:49;0.77;;;0.45;;
53503;SDS011;39387;50.998;22.340;2023-02-18T01:56:20;2.30;;;0.70;;
53503;SDS011;39387;50.998;22.340;2023-02-18T01:58:50;1.10;;;0.47;;
53503;SDS011;39387;50.998;22.340;2023-02-18T02:01:20;1.48;;;0.60;;
53503;SDS011;39387;50.998;22.340;2023-02-18T02:03:48;0.43;;;0.43;;
53503;SDS011;39387;50.998;22.340;2023-02-18T02:06:17;2.13;;;0.40;;
53503;SDS011;39387;50.998;22.340;2023-02-18T02:08:46;0.82;;;0.50;;
53503;SDS011;39387;50.998;22.340;2023-02-18T02:11:18;1.50;;;0.50;;
53503;SDS011;39387;50.998;22.340;2023-02-18T02:13:59;1.17;;;0.55;;
53503;SDS011;39387;50.998;22.340;2023-02-18T02:16:51;1.13;;;0.40;;
53503;SDS011;39387;50.998;22.340;2023-02-18T02:25:26;1.55;;;0.60;;
53503;SDS011;39387;50.998;22.340;2023-02-18T02:28:28;1.27;;;0.50;;
53503;SDS011;39387;50.998;22.340;2023-02-18T02:31:20;1.13;;;0.60;;
53503;SDS011;39387;50.998;22.340;2023-02-18T02:34:33;2.33;;;0.50;;
53503;SDS011;39387;50.998;22.340;2023-02-18T02:37:17;0.95;;;0.60;;
53503;SDS011;39387;50.998;22.340;2023-02-18T02:39:55;1.98;;;0.68;;
53503;SDS011;39387;50.998;22.340;2023-02-18T02:42:36;1.77;;;0.50;;
53503;SDS011;39387;50.998;22.340;2023-02-18T02:45:13;1.50;;;0.70;;
53503;SDS011;39387;50.998;22.340;2023-02-18T02:47:44;2.15;;;0.57;;
53503;SDS011;39387;50.998;22.340;2023-02-18T02:50:18;1.75;;;0.55;;
53503;SDS011;39387;50.998;22.340;2023-02-18T02:52:46;0.85;;;0.63;;
53503;SDS011;39387;50.998;22.340;2023-02-18T02:55:16;1.80;;;0.63;;
53503;SDS011;39387;50.998;22.340;2023-02-18T02:57:48;1.63;;;0.65;;
53503;SDS011;39387;50.998;22.340;2023-02-18T03:00:17;1.15;;;0.55;;
53503;SDS011;39387;50.998;22.340;2023-02-18T03:02:49;1.70;;;0.70;;
53503;SDS011;39387;50.998;22.340;2023-02-18T03:05:36;1.10;;;0.70;;
53503;SDS011;39387;50.998;22.340;2023-02-18T03:08:11;1.50;;;0.80;;
53503;SDS011;39387;50.998;22.340;2023-02-18T03:13:19;2.00;;;0.90;;
53503;SDS011;39387;50.998;22.340;2023-02-18T03:15:54;1.65;;;0.55;;
53503;SDS011;39387;50.998;22.340;2023-02-18T03:18:23;1.98;;;0.60;;
53503;SDS011;39387;50.998;22.340;2023-02-18T03:20:55;1.13;;;0.60;;
53503;SDS011;39387;50.998;22.340;2023-02-18T03:23:26;1.80;;;0.50;;
53503;SDS011;39387;50.998;22.340;2023-02-18T03:25:55;1.13;;;0.63;;
53503;SDS011;39387;50.998;22.340;2023-02-18T03:28:23;1.88;;;0.50;;
53503;SDS011;39387;50.998;22.340;2023-02-18T03:30:54;1.55;;;0.80;;
53503;SDS011;39387;50.998;22.340;2023-02-18T03:33:24;1.52;;;0.63;;
53503;SDS011;39387;50.998;22.340;2023-02-18T03:35:54;2.47;;;0.82;;
53503;SDS011;39387;50.998;22.340;2023-02-18T03:38:23;3.55;;;0.75;;
53503;SDS011;39387;50.998;22.340;2023-02-18T03:40:53;1.08;;;0.50;;
53503;SDS011;39387;50.998;22.340;2023-02-18T03:43:21;3.55;;;0.80;;
53503;SDS011;39387;50.998;22.340;2023-02-18T03:45:49;2.33;;;0.75;;
53503;SDS011;39387;50.998;22.340;2023-02-18T03:48:16;2.30;;;0.70;;
53503;SDS011;39387;50.998;22.340;2023-02-18T03:50:43;3.65;;;0.85;;
53503;SDS011;39387;50.998;22.340;2023-02-18T03:53:12;3.72;;;1.00;;
53503;SDS011;39387;50.998;22.340;2023-02-18T03:55:39;2.33;;;0.70;;
53503;SDS011;39387;50.998;22.340;2023-02-18T03:58:07;3.17;;;0.73;;
53503;SDS011;39387;50.998;22.340;2023-02-18T04:00:34;2.42;;;0.85;;
53503;SDS011;39387;50.998;22.340;2023-02-18T04:03:01;2.28;;;0.70;;
53503;SDS011;39387;50.998;22.340;2023-02-18T04:05:29;3.13;;;0.90;;
53503;SDS011;39387;50.998;22.340;2023-02-18T04:07:56;1.67;;;0.55;;
53503;SDS011;39387;50.998;22.340;2023-02-18T04:10:25;2.03;;;0.73;;
53503;SDS011;39387;50.998;22.340;2023-02-18T04:12:52;1.23;;;0.60;;
53503;SDS011;39387;50.998;22.340;2023-02-18T04:15:19;2.33;;;0.90;;
53503;SDS011;39387;50.998;22.340;2023-02-18T04:17:47;2.95;;;0.68;;
53503;SDS011;39387;50.998;22.340;2023-02-18T04:20:14;1.95;;;0.60;;
53503;SDS011;39387;50.998;22.340;2023-02-18T04:22:42;1.95;;;0.90;;
53503;SDS011;39387;50.998;22.340;2023-02-18T04:25:09;4.28;;;0.93;;
53503;SDS011;39387;50.998;22.340;2023-02-18T04:27:38;1.88;;;0.70;;
53503;SDS011;39387;50.998;22.340;2023-02-18T04:30:06;2.08;;;0.50;;
53503;SDS011;39387;50.998;22.340;2023-02-18T04:32:33;2.55;;;0.68;;
53503;SDS011;39387;50.998;22.340;2023-02-18T04:35:01;3.88;;;0.70;;
53503;SDS011;39387;50.998;22.340;2023-02-18T04:37:28;1.92;;;0.50;;
53503;SDS011;39387;50.998;22.340;2023-02-18T04:39:55;1.92;;;0.60;;
53503;SDS011;39387;50.998;22.340;2023-02-18T04:42:22;1.63;;;0.70;;
53503;SDS011;39387;50.998;22.340;2023-02-18T04:44:51;4.15;;;0.60;;
53503;SDS011;39387;50.998;22.340;2023-02-18T04:47:18;3.92;;;0.80;;
53503;SDS011;39387;50.998;22.340;2023-02-18T04:49:46;3.35;;;0.85;;
53503;SDS011;39387;50.998;22.340;2023-02-18T04:52:13;4.75;;;0.68;;
53503;SDS011;39387;50.998;22.340;2023-02-18T04:54:41;3.38;;;0.85;;
53503;SDS011;39387;50.998;22.340;2023-02-18T04:57:08;2.70;;;0.70;;
53503;SDS011;39387;50.998;22.340;2023-02-18T04:59:35;1.67;;;0.65;;
53503;SDS011;39387;50.998;22.340;2023-02-18T05:02:04;2.65;;;0.50;;
53503;SDS011;39387;50.998;22.340;2023-02-18T05:04:31;4.25;;;0.70;;
53503;SDS011;39387;50.998;22.340;2023-02-18T05:06:59;2.30;;;0.60;;
53503;SDS011;39387;50.998;22.340;2023-02-18T05:09:26;4.32;;;0.75;;
53503;SDS011;39387;50.998;22.340;2023-02-18T05:11:53;3.65;;;0.70;;
53503;SDS011;39387;50.998;22.340;2023-02-18T05:14:21;2.70;;;1.17;;
53503;SDS011;39387;50.998;22.340;2023-02-18T05:16:48;2.03;;;0.60;;
53503;SDS011;39387;50.998;22.340;2023-02-18T05:19:17;1.75;;;0.60;;
53503;SDS011;39387;50.998;22.340;2023-02-18T05:21:44;1.88;;;0.70;;
53503;SDS011;39387;50.998;22.340;2023-02-18T05:24:11;1.58;;;0.50;;
53503;SDS011;39387;50.998;22.340;2023-02-18T05:26:38;1.48;;;0.57;;
53503;SDS011;39387;50.998;22.340;2023-02-18T05:29:06;1.10;;;0.55;;
53503;SDS011;39387;50.998;22.340;2023-02-18T05:31:33;2.90;;;1.05;;
53503;SDS011;39387;50.998;22.340;2023-02-18T05:34:00;1.20;;;0.40;;
53503;SDS011;39387;50.998;22.340;2023-02-18T05:36:29;2.17;;;0.60;;
53503;SDS011;39387;50.998;22.340;2023-02-18T05:38:56;3.58;;;0.90;;
53503;SDS011;39387;50.998;22.340;2023-02-18T05:41:23;2.17;;;0.70;;
53503;SDS011;39387;50.998;22.340;2023-02-18T05:43:51;1.92;;;0.70;;
53503;SDS011;39387;50.998;22.340;2023-02-18T05:46:35;1.27;;;0.60;;
53503;SDS011;39387;50.998;22.340;2023-02-18T05:49:02;2.53;;;0.85;;
53503;SDS011;39387;50.998;22.340;2023-02-18T05:51:31;3.45;;;0.70;;
53503;SDS011;39387;50.998;22.340;2023-02-18T05:53:59;3.58;;;0.77;;
53503;SDS011;39387;50.998;22.340;2023-02-18T05:56:26;1.02;;;0.60;;
53503;SDS011;39387;50.998;22.340;2023-02-18T05:58:53;3.03;;;0.70;;
53503;SDS011;39387;50.998;22.340;2023-02-18T06:01:20;2.60;;;1.02;;
53503;SDS011;39387;50.998;22.340;2023-02-18T06:03:48;1.55;;;0.70;;
53503;SDS011;39387;50.998;22.340;2023-02-18T06:06:15;2.58;;;0.60;;
53503;SDS011;39387;50.998;22.340;2023-02-18T06:08:44;5.10;;;1.02;;
53503;SDS011;39387;50.998;22.340;2023-02-18T06:11:11;1.45;;;0.82;;
53503;SDS011;39387;50.998;22.340;2023-02-18T06:13:39;2.20;;;0.82;;
53503;SDS011;39387;50.998;22.340;2023-02-18T06:16:06;3.40;;;1.10;;
53503;SDS011;39387;50.998;22.340;2023-02-18T06:18:33;3.90;;;0.80;;
53503;SDS011;39387;50.998;22.340;2023-02-18T06:21:00;1.42;;;0.70;;
53503;SDS011;39387;50.998;22.340;2023-02-18T06:23:28;3.30;;;1.05;;
53503;SDS011;39387;50.998;22.340;2023-02-18T06:25:56;3.70;;;0.82;;
53503;SDS011;39387;50.998;22.340;2023-02-18T06:28:24;3.33;;;1.13;;
53503;SDS011;39387;50.998;22.340;2023-02-18T06:30:51;2.20;;;0.70;;
53503;SDS011;39387;50.998;22.340;2023-02-18T06:33:19;4.25;;;0.70;;
53503;SDS011;39387;50.998;22.340;2023-02-18T06:35:51;2.20;;;0.70;;
53503;SDS011;39387;50.998;22.340;2023-02-18T06:38:20;3.10;;;0.65;;
53503;SDS011;39387;50.998;22.340;2023-02-18T06:40:47;1.95;;;0.93;;
53503;SDS011;39387;50.998;22.340;2023-02-18T06:43:16;2.72;;;0.75;;
53503;SDS011;39387;50.998;22.340;2023-02-18T06:45:43;3.83;;;0.70;;
53503;SDS011;39387;50.998;22.340;2023-02-18T06:48:11;7.03;;;1.30;;
53503;SDS011;39387;50.998;22.340;2023-02-18T06:50:41;2.30;;;0.82;;
53503;SDS011;39387;50.998;22.340;2023-02-18T06:53:09;4.18;;;0.80;;
53503;SDS011;39387;50.998;22.340;2023-02-18T06:55:36;3.42;;;0.80;;
53503;SDS011;39387;50.998;22.340;2023-02-18T06:58:04;2.42;;;0.77;;
53503;SDS011;39387;50.998;22.340;2023-02-18T07:00:32;5.03;;;0.75;;
53503;SDS011;39387;50.998;22.340;2023-02-18T07:03:00;2.30;;;0.80;;
53503;SDS011;39387;50.998;22.340;2023-02-18T07:05:27;1.38;;;0.75;;
53503;SDS011;39387;50.998;22.340;2023-02-18T07:07:55;1.95;;;0.82;;
53503;SDS011;39387;50.998;22.340;2023-02-18T07:10:22;2.95;;;0.70;;
53503;SDS011;39387;50.998;22.340;2023-02-18T07:12:49;2.90;;;0.65;;
53503;SDS011;39387;50.998;22.340;2023-02-18T07:15:16;2.25;;;0.90;;
53503;SDS011;39387;50.998;22.340;2023-02-18T07:17:50;2.95;;;1.27;;
53503;SDS011;39387;50.998;22.340;2023-02-18T07:20:17;3.35;;;0.70;;
53503;SDS011;39387;50.998;22.340;2023-02-18T07:22:45;4.43;;;0.80;;
53503;SDS011;39387;50.998;22.340;2023-02-18T07:25:12;4.10;;;1.05;;
53503;SDS011;39387;50.998;22.340;2023-02-18T07:27:40;2.90;;;0.85;;
53503;SDS011;39387;50.998;22.340;2023-02-18T07:30:08;2.97;;;0.70;;
53503;SDS011;39387;50.998;22.340;2023-02-18T07:32:36;3.88;;;0.95;;
53503;SDS011;39387;50.998;22.340;2023-02-18T07:35:05;2.33;;;1.00;;
53503;SDS011;39387;50.998;22.340;2023-02-18T07:37:33;5.28;;;0.80;;
53503;SDS011;39387;50.998;22.340;2023-02-18T07:40:00;4.88;;;1.27;;
53503;SDS011;39387;50.998;22.340;2023-02-18T07:42:27;1.98;;;0.88;;
53503;SDS011;39387;50.998;22.340;2023-02-18T07:44:54;5.95;;;1.10;;
53503;SDS011;39387;50.998;22.340;2023-02-18T07:47:22;2.88;;;0.80;;
53503;SDS011;39387;50.998;22.340;2023-02-18T07:49:49;3.25;;;0.70;;
53503;SDS011;39387;50.998;22.340;2023-02-18T07:52:18;2.28;;;0.60;;
53503;SDS011;39387;50.998;22.340;2023-02-18T07:54:45;4.25;;;0.88;;
53503;SDS011;39387;50.998;22.340;2023-02-18T07:57:12;3.33;;;0.80;;
53503;SDS011;39387;50.998;22.340;2023-02-18T07:59:40;4.47;;;1.33;;
53503;SDS011;39387;50.998;22.340;2023-02-18T08:02:08;4.15;;;0.90;;
53503;SDS011;39387;50.998;22.340;2023-02-18T08:04:46;4.82;;;1.23;;
53503;SDS011;39387;50.998;22.340;2023-02-18T08:07:14;2.55;;;0.82;;
53503;SDS011;39387;50.998;22.340;2023-02-18T08:09:43;3.70;;;1.05;;
53503;SDS011;39387;50.998;22.340;2023-02-18T08:12:11;4.05;;;1.40;;
53503;SDS011;39387;50.998;22.340;2023-02-18T08:14:38;2.90;;;0.65;;
53503;SDS011;39387;50.998;22.340;2023-02-18T08:17:07;3.55;;;0.90;;
53503;SDS011;39387;50.998;22.340;2023-02-18T08:19:34;2.70;;;1.20;;
53503;SDS011;39387;50.998;22.340;2023-02-18T08:22:01;2.50;;;1.00;;
53503;SDS011;39387;50.998;22.340;2023-02-18T08:24:29;6.50;;;1.08;;
53503;SDS011;39387;50.998;22.340;2023-02-18T08:26:58;3.03;;;1.33;;
53503;SDS011;39387;50.998;22.340;2023-02-18T08:29:26;4.88;;;0.88;;
53503;SDS011;39387;50.998;22.340;2023-02-18T08:31:58;1.35;;;0.75;;
53503;SDS011;39387;50.998;22.340;2023-02-18T08:34:25;4.03;;;1.15;;
53503;SDS011;39387;50.998;22.340;2023-02-18T08:36:52;3.50;;;1.13;;
53503;SDS011;39387;50.998;22.340;2023-02-18T08:39:19;4.07;;;1.40;;
53503;SDS011;39387;50.998;22.340;2023-02-18T08:41:47;2.78;;;1.30;;
53503;SDS011;39387;50.998;22.340;2023-02-18T08:44:16;4.43;;;1.10;;
53503;SDS011;39387;50.998;22.340;2023-02-18T08:46:43;3.63;;;0.93;;
53503;SDS011;39387;50.998;22.340;2023-02-18T08:49:12;2.92;;;1.33;;
53503;SDS011;39387;50.998;22.340;2023-02-18T08:51:40;3.10;;;1.35;;
53503;SDS011;39387;50.998;22.340;2023-02-18T08:54:07;3.00;;;0.93;;
53503;SDS011;39387;50.998;22.340;2023-02-18T08:56:34;3.30;;;1.20;;
53503;SDS011;39387;50.998;22.340;2023-02-18T08:59:01;2.85;;;1.00;;
53503;SDS011;39387;50.998;22.340;2023-02-18T09:01:30;3.88;;;1.15;;
53503;SDS011;39387;50.998;22.340;2023-02-18T09:03:58;4.55;;;1.10;;
53503;SDS011;39387;50.998;22.340;2023-02-18T09:06:25;2.78;;;1.10;;
53503;SDS011;39387;50.998;22.340;2023-02-18T09:08:53;2.85;;;1.17;;
53503;SDS011;39387;50.998;22.340;2023-02-18T09:11:20;3.92;;;1.05;;
53503;SDS011;39387;50.998;22.340;2023-02-18T09:13:47;8.63;;;1.30;;
53503;SDS011;39387;50.998;22.340;2023-02-18T09:16:16;2.55;;;1.00;;
53503;SDS011;39387;50.998;22.340;2023-02-18T09:18:45;5.03;;;1.10;;
53503;SDS011;39387;50.998;22.340;2023-02-18T09:21:14;6.45;;;1.17;;
53503;SDS011;39387;50.998;22.340;2023-02-18T09:23:45;3.03;;;0.90;;
53503;SDS011;39387;50.998;22.340;2023-02-18T09:26:13;5.82;;;1.45;;
53503;SDS011;39387;50.998;22.340;2023-02-18T09:28:41;3.70;;;1.20;;
53503;SDS011;39387;50.998;22.340;2023-02-18T09:31:10;3.17;;;0.93;;
53503;SDS011;39387;50.998;22.340;2023-02-18T09:33:41;2.88;;;0.98;;
53503;SDS011;39387;50.998;22.340;2023-02-18T09:36:12;7.75;;;1.65;;
53503;SDS011;39387;50.998;22.340;2023-02-18T09:38:39;3.15;;;1.17;;
53503;SDS011;39387;50.998;22.340;2023-02-18T09:41:07;5.93;;;1.08;;
53503;SDS011;39387;50.998;22.340;2023-02-18T09:43:40;2.42;;;1.13;;
53503;SDS011;39387;50.998;22.340;2023-02-18T09:46:12;6.13;;;1.90;;
53503;SDS011;39387;50.998;22.340;2023-02-18T09:48:44;6.70;;;1.17;;
53503;SDS011;39387;50.998;22.340;2023-02-18T09:51:14;2.15;;;0.98;;
53503;SDS011;39387;50.998;22.340;2023-02-18T09:53:43;3.10;;;1.40;;
53503;SDS011;39387;50.998;22.340;2023-02-18T09:56:12;6.18;;;1.45;;
53503;SDS011;39387;50.998;22.340;2023-02-18T09:58:40;7.35;;;4.88;;
53503;SDS011;39387;50.998;22.340;2023-02-18T10:01:10;3.58;;;1.45;;
53503;SDS011;39387;50.998;22.340;2023-02-18T10:03:41;5.85;;;2.25;;
53503;SDS011;39387;50.998;22.340;2023-02-18T10:06:09;6.10;;;1.45;;
53503;SDS011;39387;50.998;22.340;2023-02-18T10:08:43;6.38;;;1.65;;
53503;SDS011;39387;50.998;22.340;2023-02-18T10:11:12;4.40;;;1.23;;
53503;SDS011;39387;50.998;22.340;2023-02-18T10:13:41;3.45;;;1.08;;
53503;SDS011;39387;50.998;22.340;2023-02-18T10:16:09;2.10;;;1.23;;
53503;SDS011;39387;50.998;22.340;2023-02-18T10:18:41;6.90;;;1.30;;
53503;SDS011;39387;50.998;22.340;2023-02-18T10:21:14;4.20;;;1.02;;
53503;SDS011;39387;50.998;22.340;2023-02-18T10:23:46;1.20;;;0.70;;
53503;SDS011;39387;50.998;22.340;2023-02-18T10:26:18;2.97;;;1.20;;
53503;SDS011;39387;50.998;22.340;2023-02-18T10:28:46;2.42;;;0.85;;
53503;SDS011;39387;50.998;22.340;2023-02-18T10:31:15;2.92;;;0.95;;
53503;SDS011;39387;50.998;22.340;2023-02-18T10:33:45;6.63;;;1.00;;
53503;SDS011;39387;50.998;22.340;2023-02-18T10:36:20;3.05;;;0.85;;
53503;SDS011;39387;50.998;22.340;2023-02-18T10:39:02;3.97;;;0.98;;
53503;SDS011;39387;50.998;22.340;2023-02-18T10:41:47;1.38;;;0.88;;
53503;SDS011;39387;50.998;22.340;2023-02-18T10:44:23;3.85;;;1.02;;
53503;SDS011;39387;50.998;22.340;2023-02-18T10:46:59;3.47;;;1.20;;
53503;SDS011;39387;50.998;22.340;2023-02-18T10:49:39;6.13;;;1.10;;
53503;SDS011;39387;50.998;22.340;2023-02-18T10:52:17;2.35;;;0.70;;
53503;SDS011;39387;50.998;22.340;2023-02-18T10:54:50;4.22;;;0.90;;
53503;SDS011;39387;50.998;22.340;2023-02-18T10:57:19;4.97;;;0.90;;
53503;SDS011;39387;50.998;22.340;2023-02-18T10:59:54;4.20;;;1.15;;
53503;SDS011;39387;50.998;22.340;2023-02-18T11:02:25;3.15;;;1.05;;
53503;SDS011;39387;50.998;22.340;2023-02-18T11:04:56;7.05;;;1.30;;
53503;SDS011;39387;50.998;22.340;2023-02-18T11:07:25;2.80;;;0.98;;
53503;SDS011;39387;50.998;22.340;2023-02-18T11:09:57;5.85;;;1.02;;
53503;SDS011;39387;50.998;22.340;2023-02-18T11:12:26;6.75;;;1.40;;
53503;SDS011;39387;50.998;22.340;2023-02-18T11:15:06;4.65;;;1.05;;
53503;SDS011;39387;50.998;22.340;2023-02-18T11:17:42;3.03;;;1.10;;
53503;SDS011;39387;50.998;22.340;2023-02-18T11:20:20;3.80;;;0.95;;
53503;SDS011;39387;50.998;22.340;2023-02-18T11:22:55;3.90;;;1.27;;
53503;SDS011;39387;50.998;22.340;2023-02-18T11:25:26;2.90;;;1.10;;
53503;SDS011;39387;50.998;22.340;2023-02-18T11:27:58;3.70;;;0.80;;
53503;SDS011;39387;50.998;22.340;2023-02-18T11:30:29;5.85;;;1.33;;
53503;SDS011;39387;50.998;22.340;2023-02-18T11:32:58;3.53;;;1.02;;
53503;SDS011;39387;50.998;22.340;2023-02-18T11:35:29;2.85;;;0.90;;
53503;SDS011;39387;50.998;22.340;2023-02-18T11:37:58;2.58;;;1.10;;
53503;SDS011;39387;50.998;22.340;2023-02-18T11:40:29;4.78;;;1.10;;
53503;SDS011;39387;50.998;22.340;2023-02-18T11:43:04;5.20;;;1.10;;
53503;SDS011;39387;50.998;22.340;2023-02-18T11:45:32;4.93;;;1.13;;
53503;SDS011;39387;50.998;22.340;2023-02-18T11:48:01;4.93;;;1.48;;
53503;SDS011;39387;50.998;22.340;2023-02-18T11:50:33;4.72;;;1.20;;
53503;SDS011;39387;50.998;22.340;2023-02-18T11:53:01;2.72;;;0.88;;
53503;SDS011;39387;50.998;22.340;2023-02-18T11:55:54;3.92;;;1.33;;
53503;SDS011;39387;50.998;22.340;2023-02-18T11:58:22;4.90;;;1.60;;
53503;SDS011;39387;50.998;22.340;2023-02-18T12:00:50;3.28;;;1.05;;
53503;SDS011;39387;50.998;22.340;2023-02-18T12:03:24;3.75;;;0.95;;
53503;SDS011;39387;50.998;22.340;2023-02-18T12:05:57;5.00;;;1.30;;
53503;SDS011;39387;50.998;22.340;2023-02-18T12:08:27;4.05;;;1.00;;
53503;SDS011;39387;50.998;22.340;2023-02-18T12:11:00;4.10;;;0.80;;
53503;SDS011;39387;50.998;22.340;2023-02-18T12:13:30;3.53;;;1.15;;
53503;SDS011;39387;50.998;22.340;2023-02-18T12:16:02;3.25;;;1.02;;
53503;SDS011;39387;50.998;22.340;2023-02-18T12:18:38;3.58;;;1.10;;
53503;SDS011;39387;50.998;22.340;2023-02-18T12:21:23;7.70;;;1.40;;
53503;SDS011;39387;50.998;22.340;2023-02-18T12:23:57;4.40;;;0.93;;
53503;SDS011;39387;50.998;22.340;2023-02-18T12:26:31;3.60;;;0.90;;
53503;SDS011;39387;50.998;22.340;2023-02-18T12:29:20;3.05;;;1.00;;
53503;SDS011;39387;50.998;22.340;2023-02-18T12:32:11;3.78;;;0.90;;
53503;SDS011;39387;50.998;22.340;2023-02-18T12:34:50;4.30;;;0.90;;
53503;SDS011;39387;50.998;22.340;2023-02-18T12:37:30;4.93;;;1.27;;
53503;SDS011;39387;50.998;22.340;2023-02-18T12:40:37;3.15;;;1.10;;
53503;SDS011;39387;50.998;22.340;2023-02-18T12:43:09;3.42;;;1.25;;
53503;SDS011;39387;50.998;22.340;2023-02-18T12:45:44;3.28;;;0.95;;
53503;SDS011;39387;50.998;22.340;2023-02-18T12:48:23;3.63;;;0.88;;
53503;SDS011;39387;50.998;22.340;2023-02-18T12:51:03;3.70;;;1.00;;
53503;SDS011;39387;50.998;22.340;2023-02-18T12:53:53;3.30;;;1.13;;
53503;SDS011;39387;50.998;22.340;2023-02-18T12:56:41;3.28;;;1.30;;
53503;SDS011;39387;50.998;22.340;2023-02-18T12:59:31;3.67;;;1.08;;
53503;SDS011;39387;50.998;22.340;2023-02-18T13:02:15;3.90;;;1.10;;
53503;SDS011;39387;50.998;22.340;2023-02-18T13:04:51;1.88;;;1.10;;
53503;SDS011;39387;50.998;22.340;2023-02-18T13:07:27;2.63;;;1.20;;
53503;SDS011;39387;50.998;22.340;2023-02-18T13:10:06;5.03;;;0.98;;
53503;SDS011;39387;50.998;22.340;2023-02-18T13:12:45;2.08;;;1.38;;
53503;SDS011;39387;50.998;22.340;2023-02-18T13:17:44;2.67;;;1.02;;
53503;SDS011;39387;50.998;22.340;2023-02-18T13:20:14;4.22;;;1.35;;
53503;SDS011;39387;50.998;22.340;2023-02-18T13:22:45;2.95;;;1.95;;
53503;SDS011;39387;50.998;22.340;2023-02-18T13:25:14;2.47;;;1.30;;
53503;SDS011;39387;50.998;22.340;2023-02-18T13:27:44;3.65;;;1.05;;
53503;SDS011;39387;50.998;22.340;2023-02-18T13:30:20;4.35;;;1.42;;
53503;SDS011;39387;50.998;22.340;2023-02-18T13:32:55;3.00;;;1.20;;
53503;SDS011;39387;50.998;22.340;2023-02-18T13:35:28;2.20;;;1.15;;
53503;SDS011;39387;50.998;22.340;2023-02-18T13:38:02;4.65;;;1.20;;
53503;SDS011;39387;50.998;22.340;2023-02-18T13:40:39;3.97;;;0.95;;
53503;SDS011;39387;50.998;22.340;2023-02-18T13:43:18;2.55;;;1.15;;
53503;SDS011;39387;50.998;22.340;2023-02-18T13:48:41;2.83;;;0.95;;
53503;SDS011;39387;50.998;22.340;2023-02-18T13:51:11;2.83;;;1.05;;
53503;SDS011;39387;50.998;22.340;2023-02-18T13:53:41;3.42;;;1.27;;
53503;SDS011;39387;50.998;22.340;2023-02-18T13:56:09;2.72;;;1.27;;
53503;SDS011;39387;50.998;22.340;2023-02-18T13:58:47;3.83;;;1.75;;
53503;SDS011;39387;50.998;22.340;2023-02-18T14:01:20;3.65;;;1.55;;
53503;SDS011;39387;50.998;22.340;2023-02-18T14:03:57;5.00;;;2.28;;
53503;SDS011;39387;50.998;22.340;2023-02-18T14:06:26;3.70;;;1.85;;
53503;SDS011;39387;50.998;22.340;2023-02-18T14:12:14;4.90;;;2.60;;
53503;SDS011;39387;50.998;22.340;2023-02-18T14:14:43;5.15;;;2.65;;
53503;SDS011;39387;50.998;22.340;2023-02-18T14:17:22;4.40;;;2.75;;
53503;SDS011;39387;50.998;22.340;2023-02-18T14:20:26;7.63;;;4.18;;
53503;SDS011;39387;50.998;22.340;2023-02-18T14:22:59;4.38;;;1.88;;
53503;SDS011;39387;50.998;22.340;2023-02-18T14:25:32;5.22;;;2.40;;
53503;SDS011;39387;50.998;22.340;2023-02-18T14:28:02;4.38;;;1.90;;
53503;SDS011;39387;50.998;22.340;2023-02-18T14:30:32;3.53;;;1.58;;
53503;SDS011;39387;50.998;22.340;2023-02-18T14:33:05;5.10;;;1.50;;
53503;SDS011;39387;50.998;22.340;2023-02-18T14:35:39;3.85;;;1.40;;
53503;SDS011;39387;50.998;22.340;2023-02-18T14:38:11;1.30;;;1.13;;
53503;SDS011;39387;50.998;22.340;2023-02-18T14:43:56;4.25;;;1.40;;
53503;SDS011;39387;50.998;22.340;2023-02-18T14:49:58;3.75;;;1.35;;
53503;SDS011;39387;50.998;22.340;2023-02-18T14:52:29;3.72;;;1.80;;
53503;SDS011;39387;50.998;22.340;2023-02-18T14:54:58;5.90;;;2.13;;
53503;SDS011;39387;50.998;22.340;2023-02-18T14:57:29;5.57;;;2.10;;
53503;SDS011;39387;50.998;22.340;2023-02-18T14:59:59;5.32;;;1.63;;
53503;SDS011;39387;50.998;22.340;2023-02-18T15:02:28;3.97;;;1.40;;
53503;SDS011;39387;50.998;22.340;2023-02-18T15:05:07;4.82;;;1.98;;
53503;SDS011;39387;50.998;22.340;2023-02-18T15:07:38;5.30;;;1.60;;
53503;SDS011;39387;50.998;22.340;2023-02-18T15:10:11;3.92;;;1.33;;
53503;SDS011;39387;50.998;22.340;2023-02-18T15:12:39;2.63;;;1.20;;
53503;SDS011;39387;50.998;22.340;2023-02-18T15:15:08;7.50;;;1.52;;
53503;SDS011;39387;50.998;22.340;2023-02-18T15:17:41;2.95;;;1.20;;